sensor_id;sensor_type;location;lat;lon;timestamp;temperature;humidity
1700;DHT22;847;48.058;7.810;2022-12-07T00:23:38;5.10;99.00
1700;DHT22;847;48.058;7.810;2022-12-07T00:26:06;5.20;99.00
1700;DHT22;847;48.058;7.810;2022-12-07T00:38:59;5.20;99.00
1700;DHT22;847;48.058;7.810;2022-12-07T00:57:22;5.10;99.00
1700;DHT22;847;48.058;7.810;2022-12-07T00:59:49;5.10;99.00
1700;DHT22;847;48.058;7.810;2022-12-07T01:02:20;5.10;99.00
1700;DHT22;847;48.058;7.810;2022-12-07T01:04:47;5.10;99.00
1700;DHT22;847;48.058;7.810;2022-12-07T01:07:14;5.10;99.00
1700;DHT22;847;48.058;7.810;2022-12-07T01:09:41;5.10;99.00
1700;DHT22;847;48.058;7.810;2022-12-07T01:12:08;5.10;99.00
1700;DHT22;847;48.058;7.810;2022-12-07T01:14:37;5.10;99.00
1700;DHT22;847;48.058;7.810;2022-12-07T01:17:04;5.10;99.00
1700;DHT22;847;48.058;7.810;2022-12-07T01:27:17;5.20;99.00
1700;DHT22;847;48.058;7.810;2022-12-07T01:42:42;5.00;99.00
1700;DHT22;847;48.058;7.810;2022-12-07T01:50:31;4.90;99.00
1700;DHT22;847;48.058;7.810;2022-12-07T01:53:00;4.90;99.00
1700;DHT22;847;48.058;7.810;2022-12-07T02:49:53;4.50;99.00
1700;DHT22;847;48.058;7.810;2022-12-07T03:28:40;4.60;99.00
1700;DHT22;847;48.058;7.810;2022-12-07T03:38:58;4.70;99.00
1700;DHT22;847;48.058;7.810;2022-12-07T03:41:29;4.80;99.00
1700;DHT22;847;48.058;7.810;2022-12-07T03:49:13;5.00;99.00
1700;DHT22;847;48.058;7.810;2022-12-07T03:51:47;5.00;99.00
1700;DHT22;847;48.058;7.810;2022-12-07T03:54:20;5.00;99.00
1700;DHT22;847;48.058;7.810;2022-12-07T04:02:02;4.90;99.00
1700;DHT22;847;48.058;7.810;2022-12-07T04:04:31;4.90;99.00
1700;DHT22;847;48.058;7.810;2022-12-07T04:22:32;5.00;99.00
1700;DHT22;847;48.058;7.810;2022-12-07T04:40:58;5.00;99.00
1700;DHT22;847;48.058;7.810;2022-12-07T04:43:25;5.00;99.00
1700;DHT22;847;48.058;7.810;2022-12-07T04:45:51;5.00;99.00
1700;DHT22;847;48.058;7.810;2022-12-07T04:56:06;4.90;99.00
1700;DHT22;847;48.058;7.810;2022-12-07T05:32:14;4.70;99.00
1700;DHT22;847;48.058;7.810;2022-12-07T05:37:17;4.70;99.00
1700;DHT22;847;48.058;7.810;2022-12-07T06:16:07;4.30;99.00
1700;DHT22;847;48.058;7.810;2022-12-07T06:48:33;3.40;99.00
1700;DHT22;847;48.058;7.810;2022-12-07T09:15:47;3.90;99.00
1700;DHT22;847;48.058;7.810;2022-12-07T09:18:14;4.00;99.00
1700;DHT22;847;48.058;7.810;2022-12-07T09:20:41;4.00;99.00
1700;DHT22;847;48.058;7.810;2022-12-07T09:46:35;4.20;99.00
1700;DHT22;847;48.058;7.810;2022-12-07T10:22:59;4.90;99.00
1700;DHT22;847;48.058;7.810;2022-12-07T10:25:29;4.90;99.00
1700;DHT22;847;48.058;7.810;2022-12-07T10:41:20;5.20;98.90
1700;DHT22;847;48.058;7.810;2022-12-07T12:29:23;5.90;90.30
1700;DHT22;847;48.058;7.810;2022-12-07T12:58:44;6.10;86.70
1700;DHT22;847;48.058;7.810;2022-12-07T13:01:45;6.10;86.80
1700;DHT22;847;48.058;7.810;2022-12-07T13:04:22;6.10;87.80
1700;DHT22;847;48.058;7.810;2022-12-07T13:25:36;6.10;85.60
1700;DHT22;847;48.058;7.810;2022-12-07T13:31:34;6.10;87.30
1700;DHT22;847;48.058;7.810;2022-12-07T13:34:03;6.20;85.80
1700;DHT22;847;48.058;7.810;2022-12-07T13:36:36;6.20;85.30
1700;DHT22;847;48.058;7.810;2022-12-07T13:42:23;6.30;85.50
1700;DHT22;847;48.058;7.810;2022-12-07T13:47:32;6.30;83.20
1700;DHT22;847;48.058;7.810;2022-12-07T13:50:24;6.30;84.60
1700;DHT22;847;48.058;7.810;2022-12-07T13:52:57;6.30;86.40
1700;DHT22;847;48.058;7.810;2022-12-07T13:55:34;6.20;86.00
1700;DHT22;847;48.058;7.810;2022-12-07T13:58:09;6.30;86.70
1700;DHT22;847;48.058;7.810;2022-12-07T14:00:45;6.20;87.10
1700;DHT22;847;48.058;7.810;2022-12-07T14:13:56;6.20;89.10
1700;DHT22;847;48.058;7.810;2022-12-07T14:16:28;6.20;89.50
1700;DHT22;847;48.058;7.810;2022-12-07T14:18:57;6.20;89.60
1700;DHT22;847;48.058;7.810;2022-12-07T14:21:26;6.20;89.70
1700;DHT22;847;48.058;7.810;2022-12-07T14:24:17;6.20;88.90
1700;DHT22;847;48.058;7.810;2022-12-07T14:26:46;6.20;90.00
1700;DHT22;847;48.058;7.810;2022-12-07T14:29:39;6.20;89.90
1700;DHT22;847;48.058;7.810;2022-12-07T14:32:19;6.10;90.20
1700;DHT22;847;48.058;7.810;2022-12-07T14:34:59;6.10;90.50
1700;DHT22;847;48.058;7.810;2022-12-07T14:37:28;6.10;90.90
1700;DHT22;847;48.058;7.810;2022-12-07T14:39:56;6.10;91.60
1700;DHT22;847;48.058;7.810;2022-12-07T15:08:29;5.90;92.90
1700;DHT22;847;48.058;7.810;2022-12-07T15:18:47;5.60;94.50
1700;DHT22;847;48.058;7.810;2022-12-07T15:21:28;5.50;94.70
1700;DHT22;847;48.058;7.810;2022-12-07T15:39:31;5.10;96.50
1700;DHT22;847;48.058;7.810;2022-12-07T16:02:44;4.50;98.60
1700;DHT22;847;48.058;7.810;2022-12-07T16:08:05;4.40;98.80
1700;DHT22;847;48.058;7.810;2022-12-07T16:10:32;4.40;98.80
1700;DHT22;847;48.058;7.810;2022-12-07T16:13:03;4.30;98.80
1700;DHT22;847;48.058;7.810;2022-12-07T16:15:29;4.30;98.80
1700;DHT22;847;48.058;7.810;2022-12-07T16:17:58;4.80;99.00
1700;DHT22;847;48.058;7.810;2022-12-07T16:20:24;5.50;97.30
1700;DHT22;847;48.058;7.810;2022-12-07T16:22:51;6.10;94.60
1700;DHT22;847;48.058;7.810;2022-12-07T16:25:19;6.30;91.40
1700;DHT22;847;48.058;7.810;2022-12-07T16:27:45;6.00;91.60
1700;DHT22;847;48.058;7.810;2022-12-07T16:30:14;6.10;92.30
1700;DHT22;847;48.058;7.810;2022-12-07T16:32:42;6.70;90.60
1700;DHT22;847;48.058;7.810;2022-12-07T16:35:11;7.00;87.60
1700;DHT22;847;48.058;7.810;2022-12-07T16:37:38;6.70;88.70
1700;DHT22;847;48.058;7.810;2022-12-07T16:40:07;7.30;86.50
1700;DHT22;847;48.058;7.810;2022-12-07T16:42:34;7.20;86.10
1700;DHT22;847;48.058;7.810;2022-12-07T16:45:02;6.70;86.90
1700;DHT22;847;48.058;7.810;2022-12-07T16:47:29;6.30;88.90
1700;DHT22;847;48.058;7.810;2022-12-07T16:49:59;6.10;89.10
1700;DHT22;847;48.058;7.810;2022-12-07T16:55:08;6.30;88.80
1700;DHT22;847;48.058;7.810;2022-12-07T16:57:35;6.60;88.30
1700;DHT22;847;48.058;7.810;2022-12-07T17:00:03;7.30;85.70
1700;DHT22;847;48.058;7.810;2022-12-07T17:02:30;7.80;84.20
1700;DHT22;847;48.058;7.810;2022-12-07T17:04:57;8.00;83.10
1700;DHT22;847;48.058;7.810;2022-12-07T17:07:24;7.90;82.30
1700;DHT22;847;48.058;7.810;2022-12-07T17:09:52;7.20;83.50
1700;DHT22;847;48.058;7.810;2022-12-07T17:12:20;7.40;84.20
1700;DHT22;847;48.058;7.810;2022-12-07T17:14:47;7.70;82.50
1700;DHT22;847;48.058;7.810;2022-12-07T17:17:31;6.90;83.80
1700;DHT22;847;48.058;7.810;2022-12-07T17:19:58;6.20;86.10
1700;DHT22;847;48.058;7.810;2022-12-07T17:22:25;5.90;87.70
1700;DHT22;847;48.058;7.810;2022-12-07T17:24:52;5.80;88.40
1700;DHT22;847;48.058;7.810;2022-12-07T17:27:20;5.60;89.10
1700;DHT22;847;48.058;7.810;2022-12-07T17:29:47;5.60;89.40
1700;DHT22;847;48.058;7.810;2022-12-07T17:32:14;5.60;89.00
1700;DHT22;847;48.058;7.810;2022-12-07T17:34:41;5.60;89.40
1700;DHT22;847;48.058;7.810;2022-12-07T17:37:08;5.50;90.00
1700;DHT22;847;48.058;7.810;2022-12-07T17:39:35;6.00;88.00
1700;DHT22;847;48.058;7.810;2022-12-07T17:42:02;5.60;88.00
1700;DHT22;847;48.058;7.810;2022-12-07T17:44:48;5.80;88.10
1700;DHT22;847;48.058;7.810;2022-12-07T17:47:15;5.50;88.60
1700;DHT22;847;48.058;7.810;2022-12-07T17:49:43;5.30;89.40
1700;DHT22;847;48.058;7.810;2022-12-07T17:52:11;5.10;90.10
1700;DHT22;847;48.058;7.810;2022-12-07T17:54:55;4.70;90.60
1700;DHT22;847;48.058;7.810;2022-12-07T17:57:22;4.70;91.50
1700;DHT22;847;48.058;7.810;2022-12-07T17:59:51;4.70;91.40
1700;DHT22;847;48.058;7.810;2022-12-07T18:02:20;4.60;91.80
1700;DHT22;847;48.058;7.810;2022-12-07T18:04:49;4.50;92.00
1700;DHT22;847;48.058;7.810;2022-12-07T18:07:17;4.80;92.50
1700;DHT22;847;48.058;7.810;2022-12-07T18:09:45;4.80;91.80
1700;DHT22;847;48.058;7.810;2022-12-07T18:12:12;4.90;91.60
1700;DHT22;847;48.058;7.810;2022-12-07T18:14:42;4.80;91.30
1700;DHT22;847;48.058;7.810;2022-12-07T18:17:11;4.80;91.30
1700;DHT22;847;48.058;7.810;2022-12-07T18:19:38;4.90;91.70
1700;DHT22;847;48.058;7.810;2022-12-07T18:22:06;4.80;91.50
1700;DHT22;847;48.058;7.810;2022-12-07T18:24:34;4.60;92.00
1700;DHT22;847;48.058;7.810;2022-12-07T18:27:03;4.80;91.80
1700;DHT22;847;48.058;7.810;2022-12-07T18:29:30;4.60;92.30
1700;DHT22;847;48.058;7.810;2022-12-07T18:31:57;4.60;92.20
1700;DHT22;847;48.058;7.810;2022-12-07T18:34:26;4.40;92.70
1700;DHT22;847;48.058;7.810;2022-12-07T18:36:55;4.50;92.70
1700;DHT22;847;48.058;7.810;2022-12-07T18:39:22;4.30;93.70
1700;DHT22;847;48.058;7.810;2022-12-07T18:41:50;4.30;94.80
1700;DHT22;847;48.058;7.810;2022-12-07T18:44:17;4.30;94.60
1700;DHT22;847;48.058;7.810;2022-12-07T18:46:45;4.30;94.90
1700;DHT22;847;48.058;7.810;2022-12-07T18:49:13;4.40;94.50
1700;DHT22;847;48.058;7.810;2022-12-07T18:51:42;4.50;94.20
1700;DHT22;847;48.058;7.810;2022-12-07T18:54:09;4.50;93.50
1700;DHT22;847;48.058;7.810;2022-12-07T18:56:37;4.50;93.60
1700;DHT22;847;48.058;7.810;2022-12-07T18:59:05;4.50;93.40
1700;DHT22;847;48.058;7.810;2022-12-07T19:01:51;4.60;93.50
1700;DHT22;847;48.058;7.810;2022-12-07T19:04:19;4.60;93.30
1700;DHT22;847;48.058;7.810;2022-12-07T19:06:50;4.50;92.60
1700;DHT22;847;48.058;7.810;2022-12-07T19:09:22;4.10;93.60
1700;DHT22;847;48.058;7.810;2022-12-07T19:12:10;4.00;96.10
1700;DHT22;847;48.058;7.810;2022-12-07T19:14:38;4.10;96.30
1700;DHT22;847;48.058;7.810;2022-12-07T19:17:06;4.10;96.90
1700;DHT22;847;48.058;7.810;2022-12-07T19:19:36;4.10;97.20
1700;DHT22;847;48.058;7.810;2022-12-07T19:22:06;4.00;97.10
1700;DHT22;847;48.058;7.810;2022-12-07T19:24:33;4.00;97.50
1700;DHT22;847;48.058;7.810;2022-12-07T19:27:01;4.00;97.70
1700;DHT22;847;48.058;7.810;2022-12-07T19:29:29;4.10;97.50
1700;DHT22;847;48.058;7.810;2022-12-07T19:31:56;4.10;97.30
1700;DHT22;847;48.058;7.810;2022-12-07T19:34:24;3.90;97.20
1700;DHT22;847;48.058;7.810;2022-12-07T19:36:51;3.90;97.70
1700;DHT22;847;48.058;7.810;2022-12-07T19:39:19;3.90;97.90
1700;DHT22;847;48.058;7.810;2022-12-07T19:41:46;3.90;98.00
1700;DHT22;847;48.058;7.810;2022-12-07T19:44:14;4.10;98.00
1700;DHT22;847;48.058;7.810;2022-12-07T19:46:43;4.00;97.20
1700;DHT22;847;48.058;7.810;2022-12-07T19:49:12;4.00;97.20
1700;DHT22;847;48.058;7.810;2022-12-07T19:51:41;4.00;97.70
1700;DHT22;847;48.058;7.810;2022-12-07T19:54:09;4.10;97.80
1700;DHT22;847;48.058;7.810;2022-12-07T19:56:42;4.20;97.40
1700;DHT22;847;48.058;7.810;2022-12-07T19:59:10;4.10;97.10
1700;DHT22;847;48.058;7.810;2022-12-07T20:01:38;4.00;97.80
1700;DHT22;847;48.058;7.810;2022-12-07T20:04:09;4.10;97.60
1700;DHT22;847;48.058;7.810;2022-12-07T20:06:36;4.20;97.30
1700;DHT22;847;48.058;7.810;2022-12-07T20:09:04;4.20;97.00
1700;DHT22;847;48.058;7.810;2022-12-07T20:11:31;4.00;97.20
1700;DHT22;847;48.058;7.810;2022-12-07T20:14:18;4.00;97.80
1700;DHT22;847;48.058;7.810;2022-12-07T20:16:45;4.10;97.50
1700;DHT22;847;48.058;7.810;2022-12-07T20:19:13;4.10;97.80
1700;DHT22;847;48.058;7.810;2022-12-07T20:21:41;4.10;97.40
1700;DHT22;847;48.058;7.810;2022-12-07T20:24:10;4.10;97.50
1700;DHT22;847;48.058;7.810;2022-12-07T20:26:39;4.10;98.00
1700;DHT22;847;48.058;7.810;2022-12-07T20:29:10;4.10;98.20
1700;DHT22;847;48.058;7.810;2022-12-07T20:31:41;4.10;98.10
1700;DHT22;847;48.058;7.810;2022-12-07T20:34:15;4.10;97.80
1700;DHT22;847;48.058;7.810;2022-12-07T20:39:18;4.20;97.20
1700;DHT22;847;48.058;7.810;2022-12-07T20:46:57;4.20;96.20
1700;DHT22;847;48.058;7.810;2022-12-07T20:49:24;4.20;96.10
1700;DHT22;847;48.058;7.810;2022-12-07T20:51:52;4.00;96.40
1700;DHT22;847;48.058;7.810;2022-12-07T20:54:19;3.50;97.40
1700;DHT22;847;48.058;7.810;2022-12-07T20:56:46;3.50;99.00
1700;DHT22;847;48.058;7.810;2022-12-07T20:59:14;3.70;99.00
1700;DHT22;847;48.058;7.810;2022-12-07T21:01:42;3.70;98.10
1700;DHT22;847;48.058;7.810;2022-12-07T21:04:12;3.70;97.90
1700;DHT22;847;48.058;7.810;2022-12-07T21:06:40;3.70;97.50
1700;DHT22;847;48.058;7.810;2022-12-07T21:09:09;3.70;97.60
1700;DHT22;847;48.058;7.810;2022-12-07T21:11:37;3.80;97.20
1700;DHT22;847;48.058;7.810;2022-12-07T21:14:04;3.70;97.50
1700;DHT22;847;48.058;7.810;2022-12-07T21:16:32;3.70;98.10
1700;DHT22;847;48.058;7.810;2022-12-07T21:19:00;3.60;98.40
1700;DHT22;847;48.058;7.810;2022-12-07T21:21:30;3.60;98.80
1700;DHT22;847;48.058;7.810;2022-12-07T21:23:57;3.70;98.30
1700;DHT22;847;48.058;7.810;2022-12-07T21:26:25;3.80;98.20
1700;DHT22;847;48.058;7.810;2022-12-07T21:28:53;3.70;97.90
1700;DHT22;847;48.058;7.810;2022-12-07T21:31:20;3.70;98.10
1700;DHT22;847;48.058;7.810;2022-12-07T21:33:47;3.80;97.80
1700;DHT22;847;48.058;7.810;2022-12-07T21:36:16;3.80;97.80
1700;DHT22;847;48.058;7.810;2022-12-07T21:38:45;3.90;97.60
1700;DHT22;847;48.058;7.810;2022-12-07T21:41:14;3.80;97.40
1700;DHT22;847;48.058;7.810;2022-12-07T21:43:42;3.80;97.40
1700;DHT22;847;48.058;7.810;2022-12-07T21:46:10;3.70;97.70
1700;DHT22;847;48.058;7.810;2022-12-07T21:48:38;3.70;97.70
1700;DHT22;847;48.058;7.810;2022-12-07T21:51:07;3.70;97.20
1700;DHT22;847;48.058;7.810;2022-12-07T21:53:34;3.70;98.00
1700;DHT22;847;48.058;7.810;2022-12-07T21:56:03;3.60;98.80
1700;DHT22;847;48.058;7.810;2022-12-07T21:58:30;3.70;98.80
1700;DHT22;847;48.058;7.810;2022-12-07T22:00:57;3.70;98.50
1700;DHT22;847;48.058;7.810;2022-12-07T22:03:24;3.70;99.00
1700;DHT22;847;48.058;7.810;2022-12-07T22:05:52;3.60;98.50
1700;DHT22;847;48.058;7.810;2022-12-07T22:08:24;3.50;98.40
1700;DHT22;847;48.058;7.810;2022-12-07T22:10:51;3.50;99.00
1700;DHT22;847;48.058;7.810;2022-12-07T22:13:19;3.40;99.00
1700;DHT22;847;48.058;7.810;2022-12-07T22:15:58;3.10;99.00
1700;DHT22;847;48.058;7.810;2022-12-07T22:18:24;3.10;99.00
1700;DHT22;847;48.058;7.810;2022-12-07T22:20:50;3.10;99.00
1700;DHT22;847;48.058;7.810;2022-12-07T22:23:17;3.00;99.00
1700;DHT22;847;48.058;7.810;2022-12-07T22:25:44;2.90;99.00
1700;DHT22;847;48.058;7.810;2022-12-07T22:28:11;2.80;99.00
1700;DHT22;847;48.058;7.810;2022-12-07T22:30:40;2.80;99.00
1700;DHT22;847;48.058;7.810;2022-12-07T22:33:07;2.80;99.00
1700;DHT22;847;48.058;7.810;2022-12-07T22:35:34;2.80;99.00
1700;DHT22;847;48.058;7.810;2022-12-07T22:38:01;2.80;99.00
1700;DHT22;847;48.058;7.810;2022-12-07T22:40:28;2.90;99.00
1700;DHT22;847;48.058;7.810;2022-12-07T22:42:57;3.00;99.00
1700;DHT22;847;48.058;7.810;2022-12-07T22:45:26;3.10;99.00
1700;DHT22;847;48.058;7.810;2022-12-07T22:47:54;3.20;99.00
1700;DHT22;847;48.058;7.810;2022-12-07T22:50:21;3.30;99.00
1700;DHT22;847;48.058;7.810;2022-12-07T22:52:48;3.40;99.00
1700;DHT22;847;48.058;7.810;2022-12-07T22:55:16;3.30;99.00
1700;DHT22;847;48.058;7.810;2022-12-07T22:57:43;3.30;99.00
1700;DHT22;847;48.058;7.810;2022-12-07T23:00:11;3.30;99.00
1700;DHT22;847;48.058;7.810;2022-12-07T23:02:38;3.40;99.00
1700;DHT22;847;48.058;7.810;2022-12-07T23:05:08;3.50;99.00
1700;DHT22;847;48.058;7.810;2022-12-07T23:07:35;3.40;99.00
1700;DHT22;847;48.058;7.810;2022-12-07T23:10:03;3.40;99.00
1700;DHT22;847;48.058;7.810;2022-12-07T23:12:30;3.40;99.00
1700;DHT22;847;48.058;7.810;2022-12-07T23:15:14;3.40;99.00
1700;DHT22;847;48.058;7.810;2022-12-07T23:17:41;3.30;99.00
1700;DHT22;847;48.058;7.810;2022-12-07T23:20:10;3.20;99.00
1700;DHT22;847;48.058;7.810;2022-12-07T23:22:37;3.10;99.00
1700;DHT22;847;48.058;7.810;2022-12-07T23:25:05;3.10;99.00
1700;DHT22;847;48.058;7.810;2022-12-07T23:27:33;3.00;99.00
1700;DHT22;847;48.058;7.810;2022-12-07T23:30:00;3.00;99.00
1700;DHT22;847;48.058;7.810;2022-12-07T23:32:27;3.00;99.00
1700;DHT22;847;48.058;7.810;2022-12-07T23:34:53;3.00;99.00
1700;DHT22;847;48.058;7.810;2022-12-07T23:37:22;3.00;99.00
1700;DHT22;847;48.058;7.810;2022-12-07T23:39:48;2.70;99.00
1700;DHT22;847;48.058;7.810;2022-12-07T23:42:15;2.70;99.00
1700;DHT22;847;48.058;7.810;2022-12-07T23:44:42;2.70;99.00
1700;DHT22;847;48.058;7.810;2022-12-07T23:47:09;2.70;99.00
1700;DHT22;847;48.058;7.810;2022-12-07T23:49:36;2.70;99.00
1700;DHT22;847;48.058;7.810;2022-12-07T23:52:03;2.60;99.00
1700;DHT22;847;48.058;7.810;2022-12-07T23:54:31;2.70;99.00
1700;DHT22;847;48.058;7.810;2022-12-07T23:56:58;2.80;99.00
1700;DHT22;847;48.058;7.810;2022-12-07T23:59:25;2.70;99.00
